createdAt,value
2018-11-22T00:07:20.584Z,13.57
2018-11-22T00:10:00.603Z,11.97
2018-11-22T00:13:09.507Z,12.83
2018-11-22T00:15:49.353Z,19.23
2018-11-22T00:18:35.113Z,13.57
2018-11-22T00:23:48.253Z,12.83
2018-11-22T00:29:14.867Z,13.07
2018-11-22T00:31:49.233Z,12.20
2018-11-22T00:34:22.871Z,11.93
2018-11-22T00:37:14.353Z,13.90
2018-11-22T00:39:52.907Z,13.93
2018-11-22T00:45:17.216Z,13.07
2018-11-22T12:18:14.130Z,26.73
2018-11-22T12:20:41.509Z,28.07
2018-11-22T12:23:08.708Z,25.70
2018-11-22T12:25:35.895Z,26.30
2018-11-22T12:28:03.440Z,25.87
2018-11-22T12:30:32.010Z,26.27
2018-11-22T12:33:01.869Z,28.37
2018-11-22T12:35:34.481Z,24.73
2018-11-22T12:38:07.280Z,25.90
2018-11-22T12:40:34.476Z,28.80
2018-11-22T12:43:02.240Z,23.37
2018-11-22T12:45:29.999Z,23.23
2018-11-22T12:47:57.466Z,25.73
2018-11-22T12:50:24.685Z,25.03
2018-11-22T12:52:51.853Z,25.90
2018-11-22T12:55:19.162Z,25.23
2018-11-22T12:57:46.345Z,24.80
2018-11-22T13:00:14.735Z,24.77
2018-11-22T13:02:42.873Z,24.07
2018-11-22T13:05:11.551Z,25.83
2018-11-22T13:07:39.574Z,24.33
2018-11-22T13:10:10.222Z,25.10
2018-11-22T13:12:37.391Z,26.10
2018-11-22T13:15:04.944Z,28.00
2018-11-22T13:17:32.108Z,35.07
2018-11-22T13:19:59.295Z,25.03
2018-11-22T13:22:26.576Z,27.07
2018-11-22T13:24:53.947Z,33.60
2018-11-22T13:27:21.111Z,32.00
2018-11-22T13:29:48.275Z,29.53
2018-11-22T13:32:21.251Z,42.60
2018-11-22T13:34:43.213Z,28.00
2018-11-22T13:37:10.372Z,35.03
2018-11-22T13:39:37.599Z,27.97
2018-11-22T13:42:04.799Z,29.10
2018-11-22T13:44:31.955Z,27.90
2018-11-22T13:46:59.162Z,27.20
2018-11-22T13:49:26.352Z,31.90
2018-11-22T13:51:53.554Z,30.60
2018-11-22T13:54:20.714Z,29.43
2018-11-22T13:56:47.908Z,33.13
2018-11-22T13:59:15.080Z,31.60
2018-11-22T14:01:42.272Z,30.37
2018-11-22T14:04:09.426Z,30.30
2018-11-22T14:06:36.698Z,32.60
2018-11-22T14:09:04.757Z,34.10
2018-11-22T14:11:31.943Z,34.50
2018-11-22T14:13:59.148Z,42.57
2018-11-22T14:16:26.316Z,38.57
2018-11-22T14:18:53.477Z,38.60
2018-11-22T14:21:20.660Z,33.90
2018-11-22T14:23:47.903Z,31.03
2018-11-22T14:26:15.064Z,30.17
2018-11-22T14:28:42.258Z,30.00
2018-11-22T14:31:09.472Z,31.73
2018-11-22T14:33:36.668Z,31.33
2018-11-22T14:36:03.851Z,29.97
2018-11-22T14:38:31.036Z,30.00
2018-11-22T14:40:58.265Z,29.83
2018-11-22T14:43:25.439Z,29.03
2018-11-22T14:45:52.632Z,30.10
2018-11-22T14:48:19.838Z,29.60
2018-11-22T14:50:48.903Z,25.87
2018-11-22T14:53:17.108Z,28.73
2018-11-22T14:55:44.325Z,27.30
2018-11-22T14:58:11.496Z,25.27
2018-11-22T15:00:38.713Z,27.80
2018-11-22T15:03:05.991Z,26.87
2018-11-22T15:05:33.185Z,27.63
2018-11-22T15:08:00.395Z,28.73
2018-11-22T15:10:27.577Z,25.20
2018-11-22T15:12:54.762Z,28.50
2018-11-22T15:15:23.351Z,26.97
2018-11-22T15:17:50.515Z,24.40
2018-11-22T15:20:18.842Z,25.83
2018-11-22T15:22:46.925Z,27.27
2018-11-22T15:25:22.166Z,23.63
2018-11-22T15:27:49.412Z,24.90
2018-11-22T15:30:18.172Z,24.67
2018-11-22T15:32:45.398Z,23.60
2018-11-22T15:35:14.723Z,23.30
2018-11-22T15:37:42.051Z,24.50
2018-11-22T15:40:10.595Z,21.33
2018-11-22T15:42:37.833Z,20.10
2018-11-22T15:45:05.526Z,27.20
2018-11-22T15:47:32.696Z,28.30
2018-11-22T15:49:59.860Z,20.77
2018-11-22T15:52:27.052Z,22.77
2018-11-22T15:54:54.240Z,21.13
2018-11-22T15:57:21.406Z,20.47
2018-11-22T15:59:48.664Z,20.70
2018-11-22T16:02:16.041Z,21.77
2018-11-22T16:04:43.208Z,39.97
2018-11-22T16:07:10.479Z,27.03
2018-11-22T16:09:37.654Z,22.50
2018-11-22T16:12:04.969Z,19.63
2018-11-22T16:14:32.147Z,19.70
2018-11-22T16:16:59.343Z,18.87
2018-11-22T16:19:26.504Z,18.17
2018-11-22T16:21:53.710Z,18.97
2018-11-22T16:24:20.874Z,19.12
2018-11-22T16:26:48.059Z,16.57
2018-11-22T16:29:15.220Z,17.43
2018-11-22T16:31:42.415Z,18.07
2018-11-22T16:34:09.575Z,17.30
2018-11-22T16:36:36.732Z,18.90
2018-11-22T16:39:04.975Z,18.43
2018-11-22T16:41:32.168Z,17.73
2018-11-22T16:44:03.197Z,17.67
2018-11-22T16:46:26.526Z,17.80
2018-11-22T16:48:53.720Z,17.90
2018-11-22T16:51:20.879Z,17.77
2018-11-22T16:53:48.067Z,18.47
2018-11-22T16:56:15.404Z,16.90
2018-11-22T16:58:42.588Z,16.17
2018-11-22T17:01:09.771Z,17.63
2018-11-22T17:03:36.939Z,16.00
2018-11-22T17:06:04.629Z,18.23
2018-11-22T17:08:31.799Z,16.63
2018-11-22T17:10:59.013Z,17.73
2018-11-22T17:13:26.192Z,17.90
2018-11-22T17:15:53.350Z,16.00
2018-11-22T17:18:20.533Z,16.10
2018-11-22T17:20:47.710Z,19.37
2018-11-22T17:23:14.860Z,19.87
2018-11-22T17:25:42.075Z,18.00
2018-11-22T17:28:09.734Z,17.03
2018-11-22T17:30:41.387Z,17.60
2018-11-22T17:33:08.600Z,15.73
2018-11-22T17:35:36.103Z,17.77
2018-11-22T17:38:05.679Z,16.57
2018-11-22T17:40:34.499Z,18.60
2018-11-22T17:43:02.267Z,19.40
2018-11-22T17:45:33.791Z,16.70
2018-11-22T17:48:01.588Z,17.63
2018-11-22T17:50:29.468Z,20.40
2018-11-22T17:52:56.803Z,17.60
2018-11-22T17:55:25.688Z,18.80
2018-11-22T17:57:52.871Z,18.30
2018-11-22T18:00:22.219Z,18.93
2018-11-22T18:02:50.761Z,16.57
2018-11-22T18:05:18.289Z,18.03
2018-11-22T18:07:45.484Z,15.93
2018-11-22T18:10:14.424Z,16.40
2018-11-22T18:12:43.129Z,18.90
2018-11-22T18:15:11.723Z,19.10
2018-11-22T18:17:38.945Z,15.80
2018-11-22T18:20:14.668Z,19.03
2018-11-22T18:22:42.075Z,18.10
2018-11-22T18:25:10.731Z,18.00
2018-11-22T18:27:38.104Z,18.07
2018-11-22T18:30:06.937Z,19.23
2018-11-22T18:32:34.132Z,18.40
2018-11-22T18:35:01.365Z,18.40
2018-11-22T18:37:28.547Z,19.30
2018-11-22T18:39:55.744Z,19.23
2018-11-22T18:42:22.920Z,19.33
2018-11-22T18:44:50.098Z,20.10
2018-11-22T18:47:17.989Z,21.57
2018-11-22T18:49:45.166Z,20.10
2018-11-22T18:52:12.344Z,21.73
2018-11-22T18:54:39.928Z,23.37
2018-11-22T18:57:07.156Z,21.40
2018-11-22T18:59:34.333Z,18.13
2018-11-22T19:02:02.041Z,21.00
2018-11-22T19:04:29.236Z,22.47
2018-11-22T19:06:56.391Z,24.90
2018-11-22T19:09:23.549Z,22.37
2018-11-22T19:11:51.270Z,24.23
2018-11-22T19:14:19.564Z,21.10
2018-11-22T19:16:47.123Z,19.97
2018-11-22T19:19:15.534Z,21.63
2018-11-22T19:21:44.006Z,20.10
2018-11-22T19:24:12.677Z,21.20
2018-11-22T19:26:42.483Z,21.00
2018-11-22T19:29:10.853Z,22.47
2018-11-22T19:31:38.480Z,22.33
2018-11-22T19:34:07.109Z,23.07
2018-11-22T19:36:34.895Z,21.57
2018-11-22T19:39:02.817Z,21.23
2018-11-22T19:41:30.807Z,19.97
2018-11-22T19:43:58.694Z,24.23
2018-11-22T19:46:26.761Z,19.50
2018-11-22T19:48:53.995Z,21.20
2018-11-22T19:51:21.185Z,19.93
2018-11-22T19:53:48.343Z,21.10
2018-11-22T19:56:15.519Z,21.30
2018-11-22T19:58:42.689Z,20.50
2018-11-22T20:01:09.880Z,21.87
2018-11-22T20:03:37.063Z,19.57
2018-11-22T20:06:04.244Z,19.13
2018-11-22T20:08:31.457Z,18.30
2018-11-22T20:10:58.636Z,19.80
2018-11-22T20:13:25.829Z,19.53
2018-11-22T20:15:52.987Z,19.53
2018-11-22T20:18:20.148Z,18.70
2018-11-22T20:20:50.058Z,18.17
2018-11-22T20:23:17.656Z,17.53
2018-11-22T20:25:41.714Z,19.37
2018-11-22T20:28:08.864Z,21.07
2018-11-22T20:30:38.507Z,19.87
2018-11-22T20:33:05.696Z,18.30
2018-11-22T20:35:32.865Z,18.63
2018-11-22T20:38:00.052Z,18.63
2018-11-22T20:40:27.817Z,19.50
2018-11-22T20:42:54.983Z,19.20
2018-11-22T20:45:23.345Z,19.33
2018-11-22T20:47:52.154Z,19.90
2018-11-22T20:50:20.591Z,18.50
2018-11-22T20:52:47.752Z,19.20
2018-11-22T20:55:20.150Z,18.63
2018-11-22T20:57:48.643Z,19.30
2018-11-22T21:00:17.088Z,20.23
2018-11-22T21:02:44.244Z,21.30
2018-11-22T21:05:12.023Z,19.47
2018-11-22T21:07:39.459Z,17.93
2018-11-22T21:10:08.051Z,19.57
2018-11-22T21:12:35.211Z,18.30
2018-11-22T21:15:02.591Z,19.33
2018-11-22T21:17:29.768Z,19.90
2018-11-22T21:19:56.921Z,20.37
2018-11-22T21:22:24.109Z,20.67
2018-11-22T21:24:51.260Z,18.40
2018-11-22T21:27:18.415Z,18.13
2018-11-22T21:29:45.608Z,18.80
2018-11-22T21:32:13.760Z,19.27
2018-11-22T21:34:40.937Z,19.83
2018-11-22T21:37:08.087Z,19.60
2018-11-22T21:39:35.271Z,16.80
2018-11-22T21:42:02.717Z,22.00
2018-11-22T21:44:29.889Z,17.87
2018-11-22T21:46:57.063Z,20.20
2018-11-22T21:49:24.265Z,17.20
2018-11-22T21:51:51.451Z,18.97
2018-11-22T21:54:18.605Z,17.63
2018-11-22T21:56:45.774Z,19.50
2018-11-22T21:59:12.961Z,19.30
2018-11-22T22:01:40.134Z,18.97
2018-11-22T22:04:07.351Z,19.60
2018-11-22T22:06:34.533Z,18.93
2018-11-22T22:09:02.574Z,17.63
2018-11-22T22:11:29.772Z,18.23
2018-11-22T22:13:56.921Z,17.57
2018-11-22T22:16:24.107Z,18.90
2018-11-22T22:18:51.264Z,17.87
2018-11-22T22:21:18.474Z,18.33
2018-11-22T22:23:45.647Z,18.90
2018-11-22T22:26:12.836Z,19.07
2018-11-22T22:28:39.988Z,17.93
2018-11-22T22:31:07.176Z,18.13
2018-11-22T22:33:34.355Z,18.57
2018-11-22T22:36:01.538Z,20.60
2018-11-22T22:38:28.705Z,17.00
2018-11-22T22:40:55.894Z,18.00
2018-11-22T22:43:23.059Z,19.60
2018-11-22T22:45:50.228Z,20.10
2018-11-22T22:48:17.409Z,19.97
2018-11-22T22:50:44.570Z,20.07
2018-11-22T22:53:11.744Z,19.00
2018-11-22T22:55:38.891Z,19.83
2018-11-22T22:58:06.073Z,19.00
2018-11-22T23:00:38.785Z,18.77
2018-11-22T23:03:06.936Z,18.97
2018-11-22T23:05:34.439Z,20.13
2018-11-22T23:08:02.160Z,20.47
2018-11-22T23:10:29.316Z,18.63
2018-11-22T23:12:57.216Z,20.93
2018-11-22T23:15:25.205Z,19.27
2018-11-22T23:17:52.385Z,22.20
2018-11-22T23:20:20.898Z,19.37
2018-11-22T23:22:48.532Z,18.70
2018-11-22T23:25:16.524Z,18.33
2018-11-22T23:27:43.722Z,18.77
2018-11-22T23:30:17.175Z,24.77
2018-11-22T23:32:45.843Z,18.73
2018-11-22T23:35:13.035Z,18.70
2018-11-22T23:37:40.349Z,19.83
2018-11-22T23:40:08.452Z,19.10
2018-11-22T23:42:35.613Z,18.70
2018-11-22T23:45:02.800Z,19.57
2018-11-22T23:47:30.020Z,19.77
2018-11-22T23:49:57.207Z,18.80
2018-11-22T23:52:24.390Z,21.20
2018-11-22T23:54:51.563Z,20.27
2018-11-22T23:57:18.731Z,21.50
2018-11-22T23:59:45.884Z,19.23
